sensor_id;sensor_type;location;lat;lon;timestamp;pressure;altitude;pressure_sealevel;temperature;humidity
45275;BME280;31019;43.780;25.948;2023-08-21T00:03:10;101145.66;;;20.32;100.00
45275;BME280;31019;43.780;25.948;2023-08-21T00:05:47;101150.44;;;20.57;100.00
45275;BME280;31019;43.780;25.948;2023-08-21T00:11:32;101150.75;;;20.24;100.00
45275;BME280;31019;43.780;25.948;2023-08-21T00:14:06;101153.00;;;20.42;100.00
45275;BME280;31019;43.780;25.948;2023-08-21T00:16:43;101158.81;;;19.86;100.00
45275;BME280;31019;43.780;25.948;2023-08-21T00:19:10;101155.97;;;19.98;100.00
45275;BME280;31019;43.780;25.948;2023-08-21T00:21:37;101150.22;;;20.27;100.00
45275;BME280;31019;43.780;25.948;2023-08-21T00:24:14;101151.34;;;20.31;100.00
45275;BME280;31019;43.780;25.948;2023-08-21T00:26:43;101162.69;;;19.96;100.00
45275;BME280;31019;43.780;25.948;2023-08-21T00:29:09;101157.22;;;19.58;100.00
45275;BME280;31019;43.780;25.948;2023-08-21T00:34:41;101160.47;;;20.25;100.00
45275;BME280;31019;43.780;25.948;2023-08-21T00:37:38;101158.91;;;19.97;100.00
45275;BME280;31019;43.780;25.948;2023-08-21T00:40:18;101160.03;;;20.06;100.00
45275;BME280;31019;43.780;25.948;2023-08-21T00:42:54;101168.91;;;20.33;100.00
45275;BME280;31019;43.780;25.948;2023-08-21T00:48:39;101177.38;;;20.15;100.00
45275;BME280;31019;43.780;25.948;2023-08-21T00:51:15;101172.69;;;19.68;100.00
45275;BME280;31019;43.780;25.948;2023-08-21T00:53:53;101175.72;;;20.09;100.00
45275;BME280;31019;43.780;25.948;2023-08-21T00:56:43;101172.69;;;20.00;100.00
45275;BME280;31019;43.780;25.948;2023-08-21T01:02:04;101186.31;;;20.21;100.00
45275;BME280;31019;43.780;25.948;2023-08-21T01:04:53;101190.94;;;19.93;100.00
45275;BME280;31019;43.780;25.948;2023-08-21T01:07:20;101183.38;;;19.63;100.00
45275;BME280;31019;43.780;25.948;2023-08-21T01:09:57;101178.78;;;19.90;100.00
45275;BME280;31019;43.780;25.948;2023-08-21T01:12:30;101185.84;;;19.97;100.00
45275;BME280;31019;43.780;25.948;2023-08-21T01:15:02;101189.38;;;19.97;100.00
45275;BME280;31019;43.780;25.948;2023-08-21T01:17:33;101181.31;;;19.97;100.00
45275;BME280;31019;43.780;25.948;2023-08-21T01:20:19;101186.03;;;19.58;100.00
45275;BME280;31019;43.780;25.948;2023-08-21T01:22:46;101189.19;;;19.50;100.00
45275;BME280;31019;43.780;25.948;2023-08-21T01:25:14;101186.31;;;19.34;100.00
45275;BME280;31019;43.780;25.948;2023-08-21T01:27:52;101188.16;;;19.29;100.00
45275;BME280;31019;43.780;25.948;2023-08-21T01:33:15;101183.78;;;19.50;100.00
45275;BME280;31019;43.780;25.948;2023-08-21T01:35:56;101183.88;;;19.60;100.00
45275;BME280;31019;43.780;25.948;2023-08-21T01:38:43;101183.97;;;19.65;100.00
45275;BME280;31019;43.780;25.948;2023-08-21T01:41:26;101193.75;;;19.49;100.00
45275;BME280;31019;43.780;25.948;2023-08-21T01:44:01;101182.81;;;19.34;100.00
45275;BME280;31019;43.780;25.948;2023-08-21T01:46:27;101187.56;;;19.76;100.00
45275;BME280;31019;43.780;25.948;2023-08-21T01:48:54;101177.47;;;19.93;100.00
45275;BME280;31019;43.780;25.948;2023-08-21T01:51:28;101184.16;;;19.85;100.00
45275;BME280;31019;43.780;25.948;2023-08-21T01:53:55;101189.91;;;19.18;100.00
45275;BME280;31019;43.780;25.948;2023-08-21T01:56:28;101185.97;;;19.53;100.00
45275;BME280;31019;43.780;25.948;2023-08-21T01:59:04;101184.28;;;19.68;100.00
45275;BME280;31019;43.780;25.948;2023-08-21T02:01:31;101187.34;;;19.28;100.00
45275;BME280;31019;43.780;25.948;2023-08-21T02:03:59;101186.69;;;19.43;100.00
45275;BME280;31019;43.780;25.948;2023-08-21T02:06:40;101187.75;;;19.42;100.00
45275;BME280;31019;43.780;25.948;2023-08-21T02:09:07;101177.16;;;19.35;100.00
45275;BME280;31019;43.780;25.948;2023-08-21T02:11:51;101174.59;;;19.45;100.00
45275;BME280;31019;43.780;25.948;2023-08-21T02:14:50;101178.91;;;19.47;100.00
45275;BME280;31019;43.780;25.948;2023-08-21T02:17:31;101188.72;;;19.09;100.00
45275;BME280;31019;43.780;25.948;2023-08-21T02:19:58;101195.25;;;19.13;100.00
45275;BME280;31019;43.780;25.948;2023-08-21T02:22:34;101188.72;;;19.09;100.00
45275;BME280;31019;43.780;25.948;2023-08-21T02:25:08;101188.72;;;19.09;100.00
45275;BME280;31019;43.780;25.948;2023-08-21T02:27:36;101189.91;;;18.96;100.00
45275;BME280;31019;43.780;25.948;2023-08-21T02:30:04;101195.00;;;18.92;100.00
45275;BME280;31019;43.780;25.948;2023-08-21T02:32:31;101194.09;;;19.09;100.00
45275;BME280;31019;43.780;25.948;2023-08-21T02:34:59;101190.78;;;18.80;100.00
45275;BME280;31019;43.780;25.948;2023-08-21T02:37:26;101202.78;;;18.94;100.00
45275;BME280;31019;43.780;25.948;2023-08-21T02:39:52;101196.56;;;19.10;100.00
45275;BME280;31019;43.780;25.948;2023-08-21T02:42:21;101192.91;;;18.99;100.00
45275;BME280;31019;43.780;25.948;2023-08-21T02:44:51;101190.59;;;19.08;100.00
45275;BME280;31019;43.780;25.948;2023-08-21T02:47:26;101203.13;;;18.97;100.00
45275;BME280;31019;43.780;25.948;2023-08-21T02:49:53;101202.63;;;19.01;100.00
45275;BME280;31019;43.780;25.948;2023-08-21T02:52:28;101197.78;;;18.81;100.00
45275;BME280;31019;43.780;25.948;2023-08-21T02:55:07;101191.28;;;18.60;100.00
45275;BME280;31019;43.780;25.948;2023-08-21T02:57:34;101202.34;;;18.63;100.00
45275;BME280;31019;43.780;25.948;2023-08-21T03:00:29;101205.94;;;18.69;100.00
45275;BME280;31019;43.780;25.948;2023-08-21T03:03:05;101201.63;;;18.68;100.00
45275;BME280;31019;43.780;25.948;2023-08-21T03:05:34;101207.38;;;18.38;100.00
45275;BME280;31019;43.780;25.948;2023-08-21T03:08:01;101203.59;;;18.56;100.00
45275;BME280;31019;43.780;25.948;2023-08-21T03:10:51;101204.94;;;18.19;100.00
45275;BME280;31019;43.780;25.948;2023-08-21T03:13:18;101209.41;;;18.47;100.00
45275;BME280;31019;43.780;25.948;2023-08-21T03:16:08;101205.34;;;18.67;100.00
45275;BME280;31019;43.780;25.948;2023-08-21T03:18:54;101205.00;;;18.58;100.00
45275;BME280;31019;43.780;25.948;2023-08-21T03:21:22;101207.97;;;18.79;100.00
45275;BME280;31019;43.780;25.948;2023-08-21T03:23:59;101212.56;;;18.61;100.00
45275;BME280;31019;43.780;25.948;2023-08-21T03:26:33;101215.00;;;18.63;100.00
45275;BME280;31019;43.780;25.948;2023-08-21T03:29:00;101223.06;;;18.63;100.00
45275;BME280;31019;43.780;25.948;2023-08-21T03:31:33;101212.72;;;18.54;100.00
45275;BME280;31019;43.780;25.948;2023-08-21T03:34:09;101221.19;;;18.63;100.00
45275;BME280;31019;43.780;25.948;2023-08-21T03:36:36;101213.56;;;18.55;100.00
45275;BME280;31019;43.780;25.948;2023-08-21T03:39:08;101222.97;;;18.58;100.00
45275;BME280;31019;43.780;25.948;2023-08-21T03:44:58;101220.56;;;18.39;100.00
45275;BME280;31019;43.780;25.948;2023-08-21T03:47:27;101226.66;;;18.51;100.00
45275;BME280;31019;43.780;25.948;2023-08-21T03:50:06;101223.88;;;18.63;100.00
45275;BME280;31019;43.780;25.948;2023-08-21T03:52:34;101220.47;;;18.68;100.00
45275;BME280;31019;43.780;25.948;2023-08-21T03:55:08;101228.28;;;18.69;100.00
45275;BME280;31019;43.780;25.948;2023-08-21T03:57:35;101223.88;;;18.63;100.00
45275;BME280;31019;43.780;25.948;2023-08-21T04:00:06;101223.97;;;18.51;100.00
45275;BME280;31019;43.780;25.948;2023-08-21T04:02:50;101233.59;;;18.81;100.00
45275;BME280;31019;43.780;25.948;2023-08-21T04:05:17;101235.44;;;18.64;100.00
45275;BME280;31019;43.780;25.948;2023-08-21T04:07:44;101235.03;;;18.89;100.00
45275;BME280;31019;43.780;25.948;2023-08-21T04:10:10;101228.16;;;18.98;100.00
45275;BME280;31019;43.780;25.948;2023-08-21T04:12:51;101242.91;;;19.12;100.00
45275;BME280;31019;43.780;25.948;2023-08-21T04:18:50;101250.41;;;19.10;100.00
45275;BME280;31019;43.780;25.948;2023-08-21T04:21:19;101248.97;;;19.25;100.00
45275;BME280;31019;43.780;25.948;2023-08-21T04:23:48;101248.66;;;19.43;100.00
45275;BME280;31019;43.780;25.948;2023-08-21T04:26:15;101251.88;;;19.45;100.00
45275;BME280;31019;43.780;25.948;2023-08-21T04:28:51;101245.75;;;19.72;100.00
45275;BME280;31019;43.780;25.948;2023-08-21T04:31:18;101251.19;;;19.77;100.00
45275;BME280;31019;43.780;25.948;2023-08-21T04:33:58;101250.38;;;19.54;100.00
45275;BME280;31019;43.780;25.948;2023-08-21T04:36:34;101234.34;;;19.92;100.00
45275;BME280;31019;43.780;25.948;2023-08-21T04:42:19;101238.19;;;20.33;100.00
45275;BME280;31019;43.780;25.948;2023-08-21T04:44:46;101246.59;;;20.36;100.00
45275;BME280;31019;43.780;25.948;2023-08-21T04:47:30;101249.59;;;20.40;100.00
45275;BME280;31019;43.780;25.948;2023-08-21T04:53:15;101258.47;;;20.73;100.00
45275;BME280;31019;43.780;25.948;2023-08-21T04:58:40;101253.88;;;20.73;100.00
45275;BME280;31019;43.780;25.948;2023-08-21T05:01:07;101256.72;;;20.94;100.00
45275;BME280;31019;43.780;25.948;2023-08-21T05:03:34;101250.91;;;21.33;100.00
45275;BME280;31019;43.780;25.948;2023-08-21T05:06:10;101255.16;;;21.08;100.00
45275;BME280;31019;43.780;25.948;2023-08-21T05:08:39;101253.63;;;21.27;100.00
45275;BME280;31019;43.780;25.948;2023-08-21T05:11:09;101260.47;;;21.45;100.00
45275;BME280;31019;43.780;25.948;2023-08-21T05:20:05;101262.16;;;21.72;100.00
45275;BME280;31019;43.780;25.948;2023-08-21T05:22:33;101262.44;;;21.81;100.00
45275;BME280;31019;43.780;25.948;2023-08-21T05:25:05;101252.47;;;22.12;100.00
45275;BME280;31019;43.780;25.948;2023-08-21T05:27:58;101256.53;;;22.30;100.00
45275;BME280;31019;43.780;25.948;2023-08-21T05:30:32;101256.78;;;22.59;100.00
45275;BME280;31019;43.780;25.948;2023-08-21T05:33:09;101261.41;;;22.58;100.00
45275;BME280;31019;43.780;25.948;2023-08-21T05:35:41;101261.59;;;22.93;100.00
45275;BME280;31019;43.780;25.948;2023-08-21T05:41:34;101260.88;;;23.42;100.00
45275;BME280;31019;43.780;25.948;2023-08-21T05:47:05;101260.03;;;23.51;100.00
45275;BME280;31019;43.780;25.948;2023-08-21T05:49:35;101259.91;;;23.77;100.00
45275;BME280;31019;43.780;25.948;2023-08-21T05:52:18;101254.59;;;23.96;100.00
45275;BME280;31019;43.780;25.948;2023-08-21T05:54:45;101255.56;;;24.15;100.00
45275;BME280;31019;43.780;25.948;2023-08-21T05:57:14;101247.75;;;24.43;100.00
45275;BME280;31019;43.780;25.948;2023-08-21T05:59:54;101249.72;;;24.61;100.00
45275;BME280;31019;43.780;25.948;2023-08-21T06:02:21;101247.97;;;25.00;100.00
45275;BME280;31019;43.780;25.948;2023-08-21T06:04:49;101253.84;;;25.07;100.00
45275;BME280;31019;43.780;25.948;2023-08-21T06:07:15;101248.22;;;25.46;100.00
45275;BME280;31019;43.780;25.948;2023-08-21T06:09:42;101249.06;;;25.42;100.00
45275;BME280;31019;43.780;25.948;2023-08-21T06:12:09;101249.22;;;25.50;100.00
45275;BME280;31019;43.780;25.948;2023-08-21T06:14:37;101249.97;;;25.75;100.00
45275;BME280;31019;43.780;25.948;2023-08-21T06:17:04;101259.91;;;26.03;100.00
45275;BME280;31019;43.780;25.948;2023-08-21T06:19:31;101258.63;;;26.15;100.00
45275;BME280;31019;43.780;25.948;2023-08-21T06:22:00;101258.75;;;26.23;100.00
45275;BME280;31019;43.780;25.948;2023-08-21T06:24:28;101258.50;;;26.39;100.00
45275;BME280;31019;43.780;25.948;2023-08-21T06:26:57;101253.00;;;26.58;100.00
45275;BME280;31019;43.780;25.948;2023-08-21T06:29:24;101259.88;;;26.83;100.00
45275;BME280;31019;43.780;25.948;2023-08-21T06:31:52;101250.00;;;27.01;100.00
45275;BME280;31019;43.780;25.948;2023-08-21T06:34:19;101264.63;;;27.05;100.00
45275;BME280;31019;43.780;25.948;2023-08-21T06:36:46;101264.50;;;27.37;100.00
45275;BME280;31019;43.780;25.948;2023-08-21T06:39:13;101267.75;;;27.39;100.00
45275;BME280;31019;43.780;25.948;2023-08-21T06:41:40;101264.25;;;27.61;100.00
45275;BME280;31019;43.780;25.948;2023-08-21T06:44:07;101271.75;;;27.56;100.00
45275;BME280;31019;43.780;25.948;2023-08-21T06:46:33;101272.25;;;27.94;100.00
45275;BME280;31019;43.780;25.948;2023-08-21T06:49:03;101260.69;;;27.75;100.00
45275;BME280;31019;43.780;25.948;2023-08-21T06:51:30;101265.97;;;28.16;100.00
45275;BME280;31019;43.780;25.948;2023-08-21T06:54:03;101269.16;;;28.09;100.00
45275;BME280;31019;43.780;25.948;2023-08-21T06:56:30;101271.31;;;28.21;100.00
45275;BME280;31019;43.780;25.948;2023-08-21T06:58:56;101270.25;;;28.53;100.00
45275;BME280;31019;43.780;25.948;2023-08-21T07:01:23;101271.25;;;28.58;100.00
45275;BME280;31019;43.780;25.948;2023-08-21T07:03:50;101271.66;;;28.42;100.00
45275;BME280;31019;43.780;25.948;2023-08-21T07:06:19;101272.53;;;28.38;100.00
45275;BME280;31019;43.780;25.948;2023-08-21T07:08:46;101265.78;;;28.58;100.00
45275;BME280;31019;43.780;25.948;2023-08-21T07:11:12;101272.72;;;28.64;100.00
45275;BME280;31019;43.780;25.948;2023-08-21T07:13:39;101274.50;;;28.68;100.00
45275;BME280;31019;43.780;25.948;2023-08-21T07:16:06;101272.00;;;28.81;100.00
45275;BME280;31019;43.780;25.948;2023-08-21T07:18:34;101266.09;;;28.96;100.00
45275;BME280;31019;43.780;25.948;2023-08-21T07:21:01;101266.78;;;29.10;100.00
45275;BME280;31019;43.780;25.948;2023-08-21T07:23:31;101260.13;;;28.94;100.00
45275;BME280;31019;43.780;25.948;2023-08-21T07:25:59;101255.72;;;29.15;100.00
45275;BME280;31019;43.780;25.948;2023-08-21T07:28:29;101267.59;;;29.02;100.00
45275;BME280;31019;43.780;25.948;2023-08-21T07:30:57;101257.19;;;29.30;100.00
45275;BME280;31019;43.780;25.948;2023-08-21T07:33:25;101263.31;;;29.36;100.00
45275;BME280;31019;43.780;25.948;2023-08-21T07:36:02;101260.56;;;29.36;100.00
45275;BME280;31019;43.780;25.948;2023-08-21T07:38:30;101262.50;;;29.35;100.00
45275;BME280;31019;43.780;25.948;2023-08-21T07:41:04;101261.84;;;29.47;100.00
45275;BME280;31019;43.780;25.948;2023-08-21T07:43:32;101261.69;;;30.39;100.00
45275;BME280;31019;43.780;25.948;2023-08-21T07:46:02;101256.09;;;29.92;100.00
45275;BME280;31019;43.780;25.948;2023-08-21T07:48:29;101253.34;;;29.92;100.00
45275;BME280;31019;43.780;25.948;2023-08-21T07:50:56;101255.63;;;29.99;100.00
45275;BME280;31019;43.780;25.948;2023-08-21T07:53:23;101250.88;;;30.90;100.00
45275;BME280;31019;43.780;25.948;2023-08-21T07:55:52;101254.19;;;29.84;100.00
45275;BME280;31019;43.780;25.948;2023-08-21T07:58:19;101246.94;;;29.88;100.00
45275;BME280;31019;43.780;25.948;2023-08-21T08:00:46;101248.03;;;29.61;100.00
45275;BME280;31019;43.780;25.948;2023-08-21T08:03:14;101254.28;;;30.13;100.00
45275;BME280;31019;43.780;25.948;2023-08-21T08:05:41;101248.34;;;30.29;100.00
45275;BME280;31019;43.780;25.948;2023-08-21T08:08:08;101255.94;;;30.23;100.00
45275;BME280;31019;43.780;25.948;2023-08-21T08:10:37;101246.72;;;30.10;100.00
45275;BME280;31019;43.780;25.948;2023-08-21T08:13:08;101251.88;;;30.38;100.00
45275;BME280;31019;43.780;25.948;2023-08-21T08:15:35;101248.69;;;30.66;100.00
45275;BME280;31019;43.780;25.948;2023-08-21T08:18:02;101248.94;;;30.34;100.00
45275;BME280;31019;43.780;25.948;2023-08-21T08:20:29;101250.50;;;30.53;100.00
45275;BME280;31019;43.780;25.948;2023-08-21T08:22:56;101243.44;;;30.90;100.00
45275;BME280;31019;43.780;25.948;2023-08-21T08:25:23;101241.66;;;31.45;100.00
45275;BME280;31019;43.780;25.948;2023-08-21T08:27:51;101242.19;;;31.59;100.00
45275;BME280;31019;43.780;25.948;2023-08-21T08:30:20;101242.38;;;31.96;100.00
45275;BME280;31019;43.780;25.948;2023-08-21T08:32:47;101236.00;;;32.62;97.62
45275;BME280;31019;43.780;25.948;2023-08-21T08:35:14;101234.16;;;32.54;99.35
45275;BME280;31019;43.780;25.948;2023-08-21T08:37:41;101231.34;;;32.29;100.00
45275;BME280;31019;43.780;25.948;2023-08-21T08:40:09;101230.97;;;31.64;100.00
45275;BME280;31019;43.780;25.948;2023-08-21T08:42:36;101227.25;;;30.97;100.00
45275;BME280;31019;43.780;25.948;2023-08-21T08:45:04;101223.31;;;31.07;100.00
45275;BME280;31019;43.780;25.948;2023-08-21T08:47:34;101238.00;;;31.74;100.00
45275;BME280;31019;43.780;25.948;2023-08-21T08:50:02;101222.94;;;30.49;100.00
45275;BME280;31019;43.780;25.948;2023-08-21T08:52:31;101218.56;;;31.46;100.00
45275;BME280;31019;43.780;25.948;2023-08-21T08:55:01;101210.63;;;32.32;100.00
45275;BME280;31019;43.780;25.948;2023-08-21T08:57:28;101211.19;;;31.17;100.00
45275;BME280;31019;43.780;25.948;2023-08-21T08:59:56;101212.75;;;31.81;100.00
45275;BME280;31019;43.780;25.948;2023-08-21T09:02:24;101211.00;;;31.97;100.00
45275;BME280;31019;43.780;25.948;2023-08-21T09:04:53;101208.53;;;31.50;100.00
45275;BME280;31019;43.780;25.948;2023-08-21T09:07:20;101208.34;;;32.58;100.00
45275;BME280;31019;43.780;25.948;2023-08-21T09:09:48;101204.81;;;32.70;100.00
45275;BME280;31019;43.780;25.948;2023-08-21T09:12:17;101207.34;;;31.93;100.00
45275;BME280;31019;43.780;25.948;2023-08-21T09:14:47;101193.47;;;33.37;99.70
45275;BME280;31019;43.780;25.948;2023-08-21T09:17:15;101199.84;;;32.27;100.00
45275;BME280;31019;43.780;25.948;2023-08-21T09:19:42;101192.66;;;32.47;100.00
45275;BME280;31019;43.780;25.948;2023-08-21T09:22:12;101201.03;;;31.92;100.00
45275;BME280;31019;43.780;25.948;2023-08-21T09:24:39;101191.47;;;32.11;100.00
45275;BME280;31019;43.780;25.948;2023-08-21T09:27:13;101179.94;;;32.67;100.00
45275;BME280;31019;43.780;25.948;2023-08-21T09:29:41;101189.19;;;32.37;100.00
45275;BME280;31019;43.780;25.948;2023-08-21T09:32:10;101182.31;;;32.44;100.00
45275;BME280;31019;43.780;25.948;2023-08-21T09:34:37;101182.34;;;32.93;100.00
45275;BME280;31019;43.780;25.948;2023-08-21T09:37:08;101180.09;;;33.63;100.00
45275;BME280;31019;43.780;25.948;2023-08-21T09:39:37;101174.09;;;32.80;100.00
45275;BME280;31019;43.780;25.948;2023-08-21T09:42:08;101173.53;;;32.99;98.79
45275;BME280;31019;43.780;25.948;2023-08-21T09:44:35;101167.50;;;33.78;92.04
45275;BME280;31019;43.780;25.948;2023-08-21T09:47:03;101166.47;;;33.55;95.35
45275;BME280;31019;43.780;25.948;2023-08-21T09:49:32;101161.16;;;33.62;98.39
45275;BME280;31019;43.780;25.948;2023-08-21T09:52:00;101162.84;;;33.38;88.79
45275;BME280;31019;43.780;25.948;2023-08-21T09:54:28;101158.00;;;33.07;100.00
45275;BME280;31019;43.780;25.948;2023-08-21T09:56:58;101161.56;;;33.48;97.73
45275;BME280;31019;43.780;25.948;2023-08-21T09:59:27;101153.81;;;32.85;100.00
45275;BME280;31019;43.780;25.948;2023-08-21T10:01:54;101154.47;;;33.06;100.00
45275;BME280;31019;43.780;25.948;2023-08-21T10:04:28;101155.34;;;32.46;100.00
45275;BME280;31019;43.780;25.948;2023-08-21T10:06:56;101149.34;;;33.33;100.00
45275;BME280;31019;43.780;25.948;2023-08-21T10:09:24;101145.25;;;32.62;100.00
45275;BME280;31019;43.780;25.948;2023-08-21T10:11:54;101138.72;;;33.19;100.00
45275;BME280;31019;43.780;25.948;2023-08-21T10:14:23;101134.69;;;34.52;88.52
45275;BME280;31019;43.780;25.948;2023-08-21T10:16:51;101142.84;;;31.78;100.00
45275;BME280;31019;43.780;25.948;2023-08-21T10:19:19;101136.28;;;34.18;99.01
45275;BME280;31019;43.780;25.948;2023-08-21T10:21:55;101126.00;;;33.43;96.92
45275;BME280;31019;43.780;25.948;2023-08-21T10:24:35;101122.47;;;34.02;88.48
45275;BME280;31019;43.780;25.948;2023-08-21T10:27:03;101123.75;;;34.20;94.22
45275;BME280;31019;43.780;25.948;2023-08-21T10:29:31;101128.19;;;34.09;87.71
45275;BME280;31019;43.780;25.948;2023-08-21T10:31:59;101122.50;;;33.02;100.00
45275;BME280;31019;43.780;25.948;2023-08-21T10:34:33;101115.16;;;33.34;100.00
45275;BME280;31019;43.780;25.948;2023-08-21T10:37:03;101117.84;;;34.38;92.06
45275;BME280;31019;43.780;25.948;2023-08-21T10:39:31;101106.09;;;34.57;89.48
45275;BME280;31019;43.780;25.948;2023-08-21T10:42:01;101110.28;;;34.86;77.38
45275;BME280;31019;43.780;25.948;2023-08-21T10:44:50;101102.66;;;33.81;96.24
45275;BME280;31019;43.780;25.948;2023-08-21T10:47:31;101102.41;;;34.69;85.58
45275;BME280;31019;43.780;25.948;2023-08-21T10:50:00;101101.03;;;34.98;84.84
45275;BME280;31019;43.780;25.948;2023-08-21T10:52:28;101097.66;;;34.50;84.69
45275;BME280;31019;43.780;25.948;2023-08-21T10:54:56;101107.50;;;31.89;100.00
45275;BME280;31019;43.780;25.948;2023-08-21T10:57:23;101086.59;;;33.11;99.69
45275;BME280;31019;43.780;25.948;2023-08-21T10:59:56;101094.72;;;33.07;99.05
45275;BME280;31019;43.780;25.948;2023-08-21T11:02:24;101090.44;;;35.39;73.33
45275;BME280;31019;43.780;25.948;2023-08-21T11:04:51;101088.50;;;33.50;95.68
45275;BME280;31019;43.780;25.948;2023-08-21T11:07:18;101086.06;;;34.60;85.99
45275;BME280;31019;43.780;25.948;2023-08-21T11:09:45;101080.91;;;36.01;72.91
45275;BME280;31019;43.780;25.948;2023-08-21T11:12:13;101076.66;;;35.00;80.54
45275;BME280;31019;43.780;25.948;2023-08-21T11:14:46;101081.53;;;35.26;78.28
45275;BME280;31019;43.780;25.948;2023-08-21T11:17:15;101075.19;;;35.91;70.59
45275;BME280;31019;43.780;25.948;2023-08-21T11:19:43;101081.66;;;35.75;70.47
45275;BME280;31019;43.780;25.948;2023-08-21T11:22:12;101079.00;;;35.83;74.94
45275;BME280;31019;43.780;25.948;2023-08-21T11:24:44;101070.09;;;36.73;66.67
45275;BME280;31019;43.780;25.948;2023-08-21T11:27:12;101075.13;;;35.87;74.01
45275;BME280;31019;43.780;25.948;2023-08-21T11:29:41;101056.34;;;37.10;51.05
45275;BME280;31019;43.780;25.948;2023-08-21T11:32:19;101064.53;;;35.24;76.67
45275;BME280;31019;43.780;25.948;2023-08-21T11:34:55;101068.34;;;36.04;69.58
45275;BME280;31019;43.780;25.948;2023-08-21T11:37:24;101058.66;;;35.25;71.68
45275;BME280;31019;43.780;25.948;2023-08-21T11:39:56;101058.88;;;37.26;54.12
45275;BME280;31019;43.780;25.948;2023-08-21T11:42:31;101056.97;;;35.21;77.09
45275;BME280;31019;43.780;25.948;2023-08-21T11:44:59;101063.41;;;36.47;69.15
45275;BME280;31019;43.780;25.948;2023-08-21T11:47:32;101063.53;;;36.01;68.08
45275;BME280;31019;43.780;25.948;2023-08-21T11:50:02;101045.31;;;37.17;50.79
45275;BME280;31019;43.780;25.948;2023-08-21T11:52:29;101040.25;;;38.92;38.12
45275;BME280;31019;43.780;25.948;2023-08-21T11:55:07;101045.78;;;36.29;64.83
45275;BME280;31019;43.780;25.948;2023-08-21T11:57:34;101040.78;;;37.39;48.78
45275;BME280;31019;43.780;25.948;2023-08-21T12:00:02;101041.44;;;36.91;47.61
45275;BME280;31019;43.780;25.948;2023-08-21T12:02:33;101047.81;;;37.70;42.75
45275;BME280;31019;43.780;25.948;2023-08-21T12:05:05;101046.41;;;36.75;49.73
45275;BME280;31019;43.780;25.948;2023-08-21T12:07:32;101040.84;;;36.15;51.46
45275;BME280;31019;43.780;25.948;2023-08-21T12:09:59;101038.25;;;37.64;44.93
45275;BME280;31019;43.780;25.948;2023-08-21T12:12:31;101040.34;;;35.17;59.97
45275;BME280;31019;43.780;25.948;2023-08-21T12:14:57;101042.97;;;35.75;64.86
45275;BME280;31019;43.780;25.948;2023-08-21T12:17:24;101030.44;;;36.95;60.96
45275;BME280;31019;43.780;25.948;2023-08-21T12:19:53;101034.47;;;35.42;67.74
45275;BME280;31019;43.780;25.948;2023-08-21T12:22:20;101034.16;;;35.93;60.75
45275;BME280;31019;43.780;25.948;2023-08-21T12:24:47;101044.16;;;35.74;68.48
45275;BME280;31019;43.780;25.948;2023-08-21T12:27:13;101043.94;;;36.40;62.90
45275;BME280;31019;43.780;25.948;2023-08-21T12:29:43;101039.66;;;36.16;61.66
45275;BME280;31019;43.780;25.948;2023-08-21T12:32:10;101035.22;;;34.06;89.88
45275;BME280;31019;43.780;25.948;2023-08-21T12:34:37;101019.16;;;37.11;49.00
45275;BME280;31019;43.780;25.948;2023-08-21T12:37:05;101035.56;;;36.06;61.42
45275;BME280;31019;43.780;25.948;2023-08-21T12:39:32;101022.53;;;35.80;72.25
45275;BME280;31019;43.780;25.948;2023-08-21T12:41:59;101026.88;;;35.58;74.62
45275;BME280;31019;43.780;25.948;2023-08-21T12:44:26;101032.97;;;36.43;70.33
45275;BME280;31019;43.780;25.948;2023-08-21T12:46:53;101033.50;;;35.76;72.92
45275;BME280;31019;43.780;25.948;2023-08-21T12:49:20;101030.16;;;35.64;74.00
45275;BME280;31019;43.780;25.948;2023-08-21T12:51:46;101022.16;;;35.36;76.43
45275;BME280;31019;43.780;25.948;2023-08-21T12:54:15;101020.69;;;35.42;72.51
45275;BME280;31019;43.780;25.948;2023-08-21T12:56:42;101022.06;;;36.01;62.71
45275;BME280;31019;43.780;25.948;2023-08-21T12:59:09;101017.19;;;35.45;74.22
45275;BME280;31019;43.780;25.948;2023-08-21T13:01:36;101026.75;;;34.15;76.69
45275;BME280;31019;43.780;25.948;2023-08-21T13:04:04;101024.31;;;34.84;70.52
45275;BME280;31019;43.780;25.948;2023-08-21T13:06:31;101020.19;;;35.36;68.73
45275;BME280;31019;43.780;25.948;2023-08-21T13:08:58;101024.16;;;35.16;71.63
45275;BME280;31019;43.780;25.948;2023-08-21T13:11:32;101016.19;;;35.10;68.41
45275;BME280;31019;43.780;25.948;2023-08-21T13:13:58;101022.44;;;35.30;68.20
45275;BME280;31019;43.780;25.948;2023-08-21T13:16:25;101011.38;;;34.88;70.02
45275;BME280;31019;43.780;25.948;2023-08-21T13:18:52;101014.34;;;35.87;61.97
45275;BME280;31019;43.780;25.948;2023-08-21T13:21:38;101016.97;;;35.34;70.13
45275;BME280;31019;43.780;25.948;2023-08-21T13:24:05;101011.50;;;35.57;62.01
45275;BME280;31019;43.780;25.948;2023-08-21T13:26:33;101008.09;;;35.02;71.38
45275;BME280;31019;43.780;25.948;2023-08-21T13:29:00;101010.59;;;34.68;68.79
45275;BME280;31019;43.780;25.948;2023-08-21T13:31:27;101016.09;;;35.07;63.93
45275;BME280;31019;43.780;25.948;2023-08-21T13:33:54;101011.97;;;35.17;69.24
45275;BME280;31019;43.780;25.948;2023-08-21T13:36:21;101004.91;;;35.00;73.18